Olympic National Park, WA

07:46 PM PST am 24. Januar 2015 (GMT -0800)
Lake Dawn | Change Station
CLOSE
Current Station
Persönliche Wetterstationen
Location: Port Angeles, WA
Höhe: 1864 ft
Wetterstationen in der Umgebung

Höhe 1864 ft 48.04 °N, 123.43 °W | Updated 1 minute ago

Bedeckt
Bedeckt
50.0 °F
gefühlte 50.0 °F
N
0.7
Wind Wechselnd Wind aus West
Gusts 5.4 mph

Heute
Max. -- | schwach -- °F
--% Regenrisiko
Gestern
Max. -- | schwach -- °F
Precip. -- inch
7:51 AM 5:01 PM
Erstes Viertel, 28% visible
Druck 30.19 inch
Sichtweite 10.0 Meilen
Wolken Bedeckt 700 ft
Taupunkt 50 °F
Feuchtigkeit 99%
Regen 0.04 inch
Schneehöhe Nicht verfügbar..
UV 0 von 12
Pollen .70 von 12
Luftqualität Nicht verfügbar..
Flu Activity Nicht verfügbar..
METAR KCLM 250253Z AUTO 28006KT 10SM OVC007 12/11 A3019 RMK AO2 SLP224 T01220111 $

More Conditions Fewer Conditions

Druck 30.19 inch
Sichtweite 10.0 Meilen
Wolken Bedeckt 700 ft
Taupunkt 50 °F
Feuchtigkeit 99%
Regen 0.04 inch
Schneehöhe Nicht verfügbar..
UV 0 von 12
Pollen .70 von 12
Luftqualität Nicht verfügbar..
Flu Activity Nicht verfügbar..
METAR KCLM 250253Z AUTO 28006KT 10SM OVC007 12/11 A3019 RMK AO2 SLP224 T01220111 $

More Conditions Fewer Conditions

10-Day Weather Forecast

Almanac

Astronomie

Jan. 24, 2015 Aufgang Untergang
Genaue Zeit
Bürgerliche Dämmerung
Nautische Dämmerung
Astronomische Dämmerung
Mond
Länge des sichtbaren Lichts
Tageslänge
Tomorrow will be .
, % of the Moon is Illuminated

Heutige Rekorde

State Highs State Lows

Community

WunderPhotos

Upload Photos

1,789,825 Fotos hochgeladen!

WunderBlogs® & News

Nearby

Luftqualität

  Luftqualität LQ Index Schadstoff
Not available.

Schneehöhe

Station Depth Höhe

Erdbebenaktivität

Stadt Distance Mag. Time & Date
Minimum magnitude displayed is 2.5.

küstennahe Wassertemperaturen

Ort Temperatur

Wetterstationen in der Umgebung